sensor_id;sensor_type;location;lat;lon;timestamp;pressure;altitude;pressure_sealevel;temperature;humidity
1926;BME280;964;42.606;23.588;2023-02-02T00:00:46;94576.84;;;18.20;27.00
1926;BME280;964;42.606;23.588;2023-02-02T00:03:14;94572.75;;;18.52;27.53
1926;BME280;964;42.606;23.588;2023-02-02T00:05:44;94565.28;;;17.05;29.88
1926;BME280;964;42.606;23.588;2023-02-02T00:08:11;94561.91;;;17.67;28.85
1926;BME280;964;42.606;23.588;2023-02-02T00:10:37;94559.16;;;18.26;27.26
1926;BME280;964;42.606;23.588;2023-02-02T00:13:04;94560.22;;;18.35;26.95
1926;BME280;964;42.606;23.588;2023-02-02T00:15:31;94565.69;;;18.66;27.48
1926;BME280;964;42.606;23.588;2023-02-02T00:17:58;94559.63;;;18.58;27.51
1926;BME280;964;42.606;23.588;2023-02-02T00:20:26;94573.06;;;18.13;27.23
1926;BME280;964;42.606;23.588;2023-02-02T00:22:52;94566.44;;;17.81;28.20
1926;BME280;964;42.606;23.588;2023-02-02T00:25:19;94571.69;;;17.95;27.40
1926;BME280;964;42.606;23.588;2023-02-02T00:27:46;94562.84;;;17.36;27.68
1926;BME280;964;42.606;23.588;2023-02-02T00:30:13;94571.38;;;17.09;28.18
1926;BME280;964;42.606;23.588;2023-02-02T00:32:40;94567.06;;;17.37;28.67
1926;BME280;964;42.606;23.588;2023-02-02T00:35:08;94559.78;;;17.41;28.09
1926;BME280;964;42.606;23.588;2023-02-02T00:37:37;94558.69;;;17.24;28.52
1926;BME280;964;42.606;23.588;2023-02-02T00:40:05;94553.84;;;16.94;29.21
1926;BME280;964;42.606;23.588;2023-02-02T00:42:32;94547.41;;;17.61;28.50
1926;BME280;964;42.606;23.588;2023-02-02T00:44:59;94566.22;;;16.53;29.31
1926;BME280;964;42.606;23.588;2023-02-02T00:47:40;94555.94;;;17.38;29.30
1926;BME280;964;42.606;23.588;2023-02-02T00:50:08;94560.56;;;17.31;28.86
1926;BME280;964;42.606;23.588;2023-02-02T00:52:37;94565.22;;;17.16;28.89
1926;BME280;964;42.606;23.588;2023-02-02T00:55:05;94556.47;;;17.15;28.76
1926;BME280;964;42.606;23.588;2023-02-02T00:57:31;94560.75;;;16.95;29.30
1926;BME280;964;42.606;23.588;2023-02-02T00:59:59;94559.25;;;16.87;29.37
1926;BME280;964;42.606;23.588;2023-02-02T01:02:26;94555.78;;;16.87;29.41
1926;BME280;964;42.606;23.588;2023-02-02T01:04:53;94564.25;;;16.78;29.24
1926;BME280;964;42.606;23.588;2023-02-02T01:07:19;94566.97;;;16.71;29.48
1926;BME280;964;42.606;23.588;2023-02-02T01:09:48;94553.34;;;17.86;28.37
1926;BME280;964;42.606;23.588;2023-02-02T01:12:14;94557.72;;;18.18;27.57
1926;BME280;964;42.606;23.588;2023-02-02T01:14:41;94561.13;;;18.18;27.51
1926;BME280;964;42.606;23.588;2023-02-02T01:17:08;94558.00;;;18.27;27.16
1926;BME280;964;42.606;23.588;2023-02-02T01:19:34;94560.56;;;18.41;26.83
1926;BME280;964;42.606;23.588;2023-02-02T01:22:01;94558.94;;;18.09;27.24
1926;BME280;964;42.606;23.588;2023-02-02T01:24:28;94560.03;;;18.16;27.83
1926;BME280;964;42.606;23.588;2023-02-02T01:26:56;94554.25;;;18.21;27.97
1926;BME280;964;42.606;23.588;2023-02-02T01:29:23;94549.97;;;18.68;26.41
1926;BME280;964;42.606;23.588;2023-02-02T01:31:50;94540.81;;;18.95;26.49
1926;BME280;964;42.606;23.588;2023-02-02T01:34:17;94535.25;;;18.42;26.94
1926;BME280;964;42.606;23.588;2023-02-02T01:36:46;94541.78;;;18.78;26.36
1926;BME280;964;42.606;23.588;2023-02-02T01:39:13;94537.94;;;18.42;26.74
1926;BME280;964;42.606;23.588;2023-02-02T01:41:40;94536.22;;;18.21;27.27
1926;BME280;964;42.606;23.588;2023-02-02T01:47:09;94529.38;;;16.99;29.37
1926;BME280;964;42.606;23.588;2023-02-02T01:49:36;94527.81;;;17.05;28.91
1926;BME280;964;42.606;23.588;2023-02-02T01:52:03;94539.09;;;16.44;29.23
1926;BME280;964;42.606;23.588;2023-02-02T01:54:34;94543.34;;;16.24;30.32
1926;BME280;964;42.606;23.588;2023-02-02T01:57:05;94534.53;;;16.41;29.71
1926;BME280;964;42.606;23.588;2023-02-02T01:59:34;94535.53;;;16.93;29.40
1926;BME280;964;42.606;23.588;2023-02-02T02:02:03;94521.53;;;16.57;29.33
1926;BME280;964;42.606;23.588;2023-02-02T02:04:31;94535.41;;;17.17;29.74
1926;BME280;964;42.606;23.588;2023-02-02T02:06:59;94544.13;;;15.71;30.39
1926;BME280;964;42.606;23.588;2023-02-02T02:09:27;94529.63;;;15.72;31.04
1926;BME280;964;42.606;23.588;2023-02-02T02:11:54;94528.09;;;15.71;30.72
1926;BME280;964;42.606;23.588;2023-02-02T02:14:21;94522.50;;;16.95;29.67
1926;BME280;964;42.606;23.588;2023-02-02T02:17:17;94535.66;;;15.34;31.15
1926;BME280;964;42.606;23.588;2023-02-02T02:27:00;94534.88;;;16.53;29.09
1926;BME280;964;42.606;23.588;2023-02-02T02:30:05;94547.09;;;16.58;29.56
1926;BME280;964;42.606;23.588;2023-02-02T02:32:40;94543.00;;;17.30;29.19
1926;BME280;964;42.606;23.588;2023-02-02T02:35:14;94549.50;;;17.91;28.20
1926;BME280;964;42.606;23.588;2023-02-02T02:37:49;94540.56;;;17.49;27.95
1926;BME280;964;42.606;23.588;2023-02-02T02:40:22;94561.31;;;17.35;29.26
1926;BME280;964;42.606;23.588;2023-02-02T02:42:54;94554.81;;;15.99;30.82
1926;BME280;964;42.606;23.588;2023-02-02T02:45:25;94550.00;;;17.06;29.57
1926;BME280;964;42.606;23.588;2023-02-02T02:47:54;94559.72;;;17.48;29.37
1926;BME280;964;42.606;23.588;2023-02-02T02:50:23;94548.22;;;17.58;29.22
1926;BME280;964;42.606;23.588;2023-02-02T02:52:57;94554.84;;;17.29;29.26
1926;BME280;964;42.606;23.588;2023-02-02T02:55:28;94548.41;;;17.23;29.81
1926;BME280;964;42.606;23.588;2023-02-02T02:58:07;94548.13;;;17.69;28.01
1926;BME280;964;42.606;23.588;2023-02-02T03:00:46;94557.25;;;17.78;29.02
1926;BME280;964;42.606;23.588;2023-02-02T03:03:29;94553.91;;;17.60;29.05
1926;BME280;964;42.606;23.588;2023-02-02T03:06:06;94560.09;;;16.49;30.89
1926;BME280;964;42.606;23.588;2023-02-02T03:08:37;94551.63;;;16.82;29.52
1926;BME280;964;42.606;23.588;2023-02-02T03:11:06;94551.28;;;17.49;29.18
1926;BME280;964;42.606;23.588;2023-02-02T03:13:34;94555.25;;;17.27;29.07
1926;BME280;964;42.606;23.588;2023-02-02T03:16:00;94557.31;;;17.68;29.11
1926;BME280;964;42.606;23.588;2023-02-02T03:18:30;94551.44;;;17.21;29.57
1926;BME280;964;42.606;23.588;2023-02-02T03:21:01;94544.88;;;17.36;29.02
1926;BME280;964;42.606;23.588;2023-02-02T03:23:28;94544.41;;;17.52;29.71
1926;BME280;964;42.606;23.588;2023-02-02T03:25:55;94541.25;;;16.91;29.83
1926;BME280;964;42.606;23.588;2023-02-02T03:28:23;94549.16;;;17.20;29.49
1926;BME280;964;42.606;23.588;2023-02-02T03:30:50;94550.22;;;17.40;28.93
1926;BME280;964;42.606;23.588;2023-02-02T03:33:18;94545.88;;;17.60;29.60
1926;BME280;964;42.606;23.588;2023-02-02T03:35:47;94547.63;;;17.22;29.32
1926;BME280;964;42.606;23.588;2023-02-02T03:38:13;94548.44;;;17.15;29.37
1926;BME280;964;42.606;23.588;2023-02-02T03:40:40;94543.94;;;16.91;29.47
1926;BME280;964;42.606;23.588;2023-02-02T03:43:07;94558.94;;;16.53;30.49
1926;BME280;964;42.606;23.588;2023-02-02T03:45:34;94559.00;;;15.86;31.32
1926;BME280;964;42.606;23.588;2023-02-02T03:48:02;94571.59;;;16.39;30.43
1926;BME280;964;42.606;23.588;2023-02-02T03:50:29;94567.78;;;15.97;31.49
1926;BME280;964;42.606;23.588;2023-02-02T03:52:57;94563.97;;;16.12;30.91
1926;BME280;964;42.606;23.588;2023-02-02T03:55:24;94559.38;;;16.24;30.77
1926;BME280;964;42.606;23.588;2023-02-02T03:57:51;94570.06;;;15.67;31.35
1926;BME280;964;42.606;23.588;2023-02-02T04:00:18;94577.69;;;16.32;30.81
1926;BME280;964;42.606;23.588;2023-02-02T04:02:45;94572.34;;;16.43;30.71
1926;BME280;964;42.606;23.588;2023-02-02T04:05:12;94577.34;;;16.23;31.09
1926;BME280;964;42.606;23.588;2023-02-02T04:07:38;94572.72;;;15.70;31.60
1926;BME280;964;42.606;23.588;2023-02-02T04:10:07;94573.31;;;15.00;32.51
1926;BME280;964;42.606;23.588;2023-02-02T04:12:34;94564.75;;;16.06;31.41
1926;BME280;964;42.606;23.588;2023-02-02T04:15:01;94568.56;;;15.87;31.91
1926;BME280;964;42.606;23.588;2023-02-02T04:17:27;94566.94;;;15.37;32.70
1926;BME280;964;42.606;23.588;2023-02-02T04:19:54;94575.13;;;14.75;33.45
1926;BME280;964;42.606;23.588;2023-02-02T04:22:23;94568.38;;;15.09;33.25
1926;BME280;964;42.606;23.588;2023-02-02T04:24:50;94556.28;;;15.47;32.21
1926;BME280;964;42.606;23.588;2023-02-02T04:27:18;94570.47;;;14.65;33.18
1926;BME280;964;42.606;23.588;2023-02-02T04:29:44;94566.13;;;15.11;32.64
1926;BME280;964;42.606;23.588;2023-02-02T04:32:13;94564.56;;;15.07;32.95
1926;BME280;964;42.606;23.588;2023-02-02T04:34:40;94563.22;;;15.73;32.18
1926;BME280;964;42.606;23.588;2023-02-02T04:37:07;94574.69;;;15.84;32.01
1926;BME280;964;42.606;23.588;2023-02-02T04:39:34;94577.94;;;15.14;32.25
1926;BME280;964;42.606;23.588;2023-02-02T04:42:00;94580.53;;;14.96;33.40
1926;BME280;964;42.606;23.588;2023-02-02T04:44:29;94579.97;;;15.49;32.21
1926;BME280;964;42.606;23.588;2023-02-02T04:46:56;94573.13;;;15.69;32.42
1926;BME280;964;42.606;23.588;2023-02-02T04:49:22;94580.03;;;15.84;31.75
1926;BME280;964;42.606;23.588;2023-02-02T04:51:49;94573.91;;;15.80;31.33
1926;BME280;964;42.606;23.588;2023-02-02T04:54:16;94576.88;;;15.40;32.00
1926;BME280;964;42.606;23.588;2023-02-02T04:56:42;94581.38;;;15.18;32.55
1926;BME280;964;42.606;23.588;2023-02-02T04:59:09;94582.22;;;15.43;32.01
1926;BME280;964;42.606;23.588;2023-02-02T05:01:37;94585.31;;;15.56;31.94
1926;BME280;964;42.606;23.588;2023-02-02T05:04:04;94588.41;;;15.83;31.49
1926;BME280;964;42.606;23.588;2023-02-02T05:06:31;94586.03;;;15.42;32.06
1926;BME280;964;42.606;23.588;2023-02-02T05:08:57;94591.84;;;14.72;33.65
1926;BME280;964;42.606;23.588;2023-02-02T05:11:25;94589.09;;;15.41;32.30
1926;BME280;964;42.606;23.588;2023-02-02T05:13:53;94591.41;;;15.53;31.87
1926;BME280;964;42.606;23.588;2023-02-02T05:16:20;94599.78;;;15.48;32.04
1926;BME280;964;42.606;23.588;2023-02-02T05:18:51;94596.66;;;15.25;32.26
1926;BME280;964;42.606;23.588;2023-02-02T05:21:18;94596.59;;;15.07;32.88
1926;BME280;964;42.606;23.588;2023-02-02T05:23:45;94581.53;;;15.71;32.53
1926;BME280;964;42.606;23.588;2023-02-02T05:26:14;94585.94;;;15.10;32.27
1926;BME280;964;42.606;23.588;2023-02-02T05:28:41;94579.63;;;16.28;30.85
1926;BME280;964;42.606;23.588;2023-02-02T05:31:08;94579.19;;;16.51;30.17
1926;BME280;964;42.606;23.588;2023-02-02T05:33:35;94582.28;;;16.03;30.90
1926;BME280;964;42.606;23.588;2023-02-02T05:36:04;94583.03;;;16.46;29.86
1926;BME280;964;42.606;23.588;2023-02-02T05:38:34;94584.50;;;16.86;29.89
1926;BME280;964;42.606;23.588;2023-02-02T05:41:00;94591.81;;;16.40;29.98
1926;BME280;964;42.606;23.588;2023-02-02T05:43:28;94601.38;;;16.41;29.53
1926;BME280;964;42.606;23.588;2023-02-02T05:45:55;94599.84;;;16.40;30.40
1926;BME280;964;42.606;23.588;2023-02-02T05:48:22;94592.09;;;16.95;29.58
1926;BME280;964;42.606;23.588;2023-02-02T05:50:55;94592.03;;;17.12;28.86
1926;BME280;964;42.606;23.588;2023-02-02T05:53:25;94604.78;;;16.73;30.22
1926;BME280;964;42.606;23.588;2023-02-02T05:55:52;94604.69;;;16.98;29.35
1926;BME280;964;42.606;23.588;2023-02-02T05:58:19;94604.44;;;16.32;30.34
1926;BME280;964;42.606;23.588;2023-02-02T06:00:46;94606.63;;;17.04;29.05
1926;BME280;964;42.606;23.588;2023-02-02T06:03:12;94597.44;;;16.98;29.56
1926;BME280;964;42.606;23.588;2023-02-02T06:05:39;94606.38;;;17.54;28.88
1926;BME280;964;42.606;23.588;2023-02-02T06:08:06;94612.06;;;16.51;30.26
1926;BME280;964;42.606;23.588;2023-02-02T06:10:34;94611.25;;;16.93;30.23
1926;BME280;964;42.606;23.588;2023-02-02T06:13:00;94605.56;;;17.64;28.33
1926;BME280;964;42.606;23.588;2023-02-02T06:15:27;94601.78;;;17.54;28.05
1926;BME280;964;42.606;23.588;2023-02-02T06:17:53;94606.66;;;16.90;29.39
1926;BME280;964;42.606;23.588;2023-02-02T06:20:20;94604.31;;;16.99;29.43
1926;BME280;964;42.606;23.588;2023-02-02T06:22:47;94612.28;;;17.93;28.82
1926;BME280;964;42.606;23.588;2023-02-02T06:25:14;94612.22;;;18.00;28.22
1926;BME280;964;42.606;23.588;2023-02-02T06:27:43;94610.59;;;17.55;28.56
1926;BME280;964;42.606;23.588;2023-02-02T06:30:11;94607.59;;;17.39;28.72
1926;BME280;964;42.606;23.588;2023-02-02T06:32:38;94608.00;;;18.03;28.07
1926;BME280;964;42.606;23.588;2023-02-02T06:35:05;94604.13;;;18.07;28.31
1926;BME280;964;42.606;23.588;2023-02-02T06:37:32;94608.38;;;18.53;27.79
1926;BME280;964;42.606;23.588;2023-02-02T06:39:59;94612.97;;;18.56;27.23
1926;BME280;964;42.606;23.588;2023-02-02T06:42:26;94599.31;;;18.33;27.81
1926;BME280;964;42.606;23.588;2023-02-02T06:44:54;94617.50;;;18.11;28.61
1926;BME280;964;42.606;23.588;2023-02-02T06:47:21;94629.25;;;18.76;28.06
1926;BME280;964;42.606;23.588;2023-02-02T06:49:47;94629.97;;;18.83;27.99
1926;BME280;964;42.606;23.588;2023-02-02T06:52:14;94629.63;;;19.49;26.79
1926;BME280;964;42.606;23.588;2023-02-02T06:54:41;94636.50;;;19.80;26.32
1926;BME280;964;42.606;23.588;2023-02-02T06:57:07;94635.69;;;19.83;26.30
1926;BME280;964;42.606;23.588;2023-02-02T06:59:34;94639.31;;;19.96;26.47
1926;BME280;964;42.606;23.588;2023-02-02T07:02:03;94634.66;;;20.00;26.59
1926;BME280;964;42.606;23.588;2023-02-02T07:04:30;94626.50;;;20.34;26.05
1926;BME280;964;42.606;23.588;2023-02-02T07:06:57;94634.00;;;19.66;26.63
1926;BME280;964;42.606;23.588;2023-02-02T07:09:24;94628.81;;;20.05;26.38
1926;BME280;964;42.606;23.588;2023-02-02T07:11:50;94631.34;;;20.43;26.06
1926;BME280;964;42.606;23.588;2023-02-02T07:14:17;94640.97;;;19.60;26.93
1926;BME280;964;42.606;23.588;2023-02-02T07:16:44;94644.53;;;19.53;27.23
1926;BME280;964;42.606;23.588;2023-02-02T07:19:12;94657.03;;;19.67;27.05
1926;BME280;964;42.606;23.588;2023-02-02T07:21:38;94648.56;;;19.95;27.08
1926;BME280;964;42.606;23.588;2023-02-02T07:24:06;94633.16;;;20.49;25.87
1926;BME280;964;42.606;23.588;2023-02-02T07:26:34;94630.41;;;20.53;25.87
1926;BME280;964;42.606;23.588;2023-02-02T07:29:01;94625.59;;;19.91;26.61
1926;BME280;964;42.606;23.588;2023-02-02T07:31:29;94635.03;;;20.26;26.02
1926;BME280;964;42.606;23.588;2023-02-02T07:33:55;94634.41;;;20.68;25.88
1926;BME280;964;42.606;23.588;2023-02-02T07:36:24;94634.69;;;21.17;25.39
1926;BME280;964;42.606;23.588;2023-02-02T07:38:52;94630.28;;;21.82;24.31
1926;BME280;964;42.606;23.588;2023-02-02T07:41:19;94638.16;;;21.37;23.98
1926;BME280;964;42.606;23.588;2023-02-02T07:43:47;94635.22;;;21.28;24.46
1926;BME280;964;42.606;23.588;2023-02-02T07:46:15;94644.59;;;21.23;24.50
1926;BME280;964;42.606;23.588;2023-02-02T07:48:42;94636.19;;;20.98;24.71
1926;BME280;964;42.606;23.588;2023-02-02T07:51:11;94643.13;;;20.95;24.77
1926;BME280;964;42.606;23.588;2023-02-02T07:53:42;94638.94;;;20.71;24.98
1926;BME280;964;42.606;23.588;2023-02-02T07:56:10;94629.09;;;20.84;24.81
1926;BME280;964;42.606;23.588;2023-02-02T07:58:37;94634.31;;;19.98;26.22
1926;BME280;964;42.606;23.588;2023-02-02T08:01:05;94626.84;;;20.10;25.81
1926;BME280;964;42.606;23.588;2023-02-02T08:03:33;94616.31;;;20.88;25.03
1926;BME280;964;42.606;23.588;2023-02-02T08:05:59;94623.69;;;21.83;24.60
1926;BME280;964;42.606;23.588;2023-02-02T08:08:26;94599.50;;;24.51;22.39
1926;BME280;964;42.606;23.588;2023-02-02T08:10:54;94577.56;;;27.05;20.16
1926;BME280;964;42.606;23.588;2023-02-02T08:13:21;94567.06;;;29.57;18.03
1926;BME280;964;42.606;23.588;2023-02-02T08:15:48;94561.28;;;30.48;16.65
1926;BME280;964;42.606;23.588;2023-02-02T08:18:15;94552.38;;;30.94;16.28
1926;BME280;964;42.606;23.588;2023-02-02T08:20:42;94548.72;;;32.42;15.42
1926;BME280;964;42.606;23.588;2023-02-02T08:23:08;94535.06;;;33.13;14.92
1926;BME280;964;42.606;23.588;2023-02-02T08:25:40;94540.78;;;31.76;15.46
1926;BME280;964;42.606;23.588;2023-02-02T08:28:08;94524.44;;;32.30;15.44
1926;BME280;964;42.606;23.588;2023-02-02T08:30:34;94511.84;;;35.46;14.26
1926;BME280;964;42.606;23.588;2023-02-02T08:33:01;94517.41;;;34.03;14.07
1926;BME280;964;42.606;23.588;2023-02-02T08:35:28;94552.78;;;30.46;16.20
1926;BME280;964;42.606;23.588;2023-02-02T08:37:54;94556.81;;;28.99;17.29
1926;BME280;964;42.606;23.588;2023-02-02T08:40:21;94546.66;;;28.99;17.53
1926;BME280;964;42.606;23.588;2023-02-02T08:42:53;94546.84;;;30.13;16.54
1926;BME280;964;42.606;23.588;2023-02-02T08:45:21;94547.34;;;30.32;15.93
1926;BME280;964;42.606;23.588;2023-02-02T08:47:48;94539.53;;;30.59;16.30
1926;BME280;964;42.606;23.588;2023-02-02T08:50:15;94530.09;;;32.10;15.70
1926;BME280;964;42.606;23.588;2023-02-02T08:52:42;94520.97;;;32.83;15.09
1926;BME280;964;42.606;23.588;2023-02-02T08:55:09;94505.59;;;34.35;14.05
1926;BME280;964;42.606;23.588;2023-02-02T08:57:36;94502.28;;;35.11;13.67
1926;BME280;964;42.606;23.588;2023-02-02T09:00:02;94499.22;;;35.20;13.94
1926;BME280;964;42.606;23.588;2023-02-02T09:02:32;94503.63;;;36.54;12.44
1926;BME280;964;42.606;23.588;2023-02-02T09:04:59;94508.53;;;35.53;12.94
1926;BME280;964;42.606;23.588;2023-02-02T09:07:25;94506.94;;;35.27;13.81
1926;BME280;964;42.606;23.588;2023-02-02T09:09:52;94512.34;;;34.34;14.13
1926;BME280;964;42.606;23.588;2023-02-02T09:12:22;94524.22;;;31.96;15.28
1926;BME280;964;42.606;23.588;2023-02-02T09:14:49;94526.22;;;32.86;14.56
1926;BME280;964;42.606;23.588;2023-02-02T09:17:16;94514.88;;;33.49;14.35
1926;BME280;964;42.606;23.588;2023-02-02T09:19:44;94514.91;;;33.93;14.42
1926;BME280;964;42.606;23.588;2023-02-02T09:22:10;94512.00;;;34.66;14.26
1926;BME280;964;42.606;23.588;2023-02-02T09:24:37;94504.13;;;35.38;13.48
1926;BME280;964;42.606;23.588;2023-02-02T09:27:04;94503.28;;;35.19;14.02
1926;BME280;964;42.606;23.588;2023-02-02T09:29:30;94493.50;;;35.54;13.04
1926;BME280;964;42.606;23.588;2023-02-02T09:31:57;94492.47;;;35.57;13.42
1926;BME280;964;42.606;23.588;2023-02-02T09:34:24;94490.22;;;35.85;13.02
1926;BME280;964;42.606;23.588;2023-02-02T09:36:52;94496.66;;;35.33;13.21
1926;BME280;964;42.606;23.588;2023-02-02T09:39:18;94496.22;;;32.18;14.82
1926;BME280;964;42.606;23.588;2023-02-02T09:42:05;94506.13;;;30.96;16.25
1926;BME280;964;42.606;23.588;2023-02-02T09:44:53;94502.97;;;30.83;16.61
1926;BME280;964;42.606;23.588;2023-02-02T09:47:23;94496.13;;;31.44;16.25
1926;BME280;964;42.606;23.588;2023-02-02T09:49:58;94488.13;;;33.16;15.29
1926;BME280;964;42.606;23.588;2023-02-02T09:52:33;94485.13;;;34.03;14.75
1926;BME280;964;42.606;23.588;2023-02-02T09:55:06;94482.94;;;33.79;14.81
1926;BME280;964;42.606;23.588;2023-02-02T09:57:40;94480.44;;;33.48;14.90
1926;BME280;964;42.606;23.588;2023-02-02T10:00:22;94471.03;;;35.03;14.36
1926;BME280;964;42.606;23.588;2023-02-02T10:02:55;94469.56;;;35.97;13.81
1926;BME280;964;42.606;23.588;2023-02-02T10:05:28;94477.91;;;33.33;14.76
1926;BME280;964;42.606;23.588;2023-02-02T10:08:00;94469.69;;;33.33;14.96
1926;BME280;964;42.606;23.588;2023-02-02T10:10:34;94465.28;;;32.66;15.73
1926;BME280;964;42.606;23.588;2023-02-02T10:13:09;94455.84;;;31.19;15.81
1926;BME280;964;42.606;23.588;2023-02-02T10:15:40;94454.50;;;31.09;16.22
1926;BME280;964;42.606;23.588;2023-02-02T10:18:14;94455.69;;;31.28;16.15
1926;BME280;964;42.606;23.588;2023-02-02T10:20:47;94456.84;;;30.96;16.14
1926;BME280;964;42.606;23.588;2023-02-02T10:23:22;94453.19;;;31.30;16.63
1926;BME280;964;42.606;23.588;2023-02-02T10:25:55;94447.28;;;32.05;15.04
1926;BME280;964;42.606;23.588;2023-02-02T10:28:33;94439.91;;;31.80;16.02
1926;BME280;964;42.606;23.588;2023-02-02T10:31:14;94436.63;;;32.13;15.70
1926;BME280;964;42.606;23.588;2023-02-02T10:33:48;94429.22;;;31.88;15.80
1926;BME280;964;42.606;23.588;2023-02-02T10:36:23;94431.41;;;31.78;15.86
1926;BME280;964;42.606;23.588;2023-02-02T10:39:01;94427.38;;;31.74;15.10
1926;BME280;964;42.606;23.588;2023-02-02T10:41:35;94424.66;;;30.19;16.96
1926;BME280;964;42.606;23.588;2023-02-02T10:44:16;94428.44;;;29.52;17.16
1926;BME280;964;42.606;23.588;2023-02-02T10:46:50;94423.34;;;29.59;17.14
1926;BME280;964;42.606;23.588;2023-02-02T10:49:28;94403.19;;;30.32;16.55
1926;BME280;964;42.606;23.588;2023-02-02T10:52:02;94402.91;;;30.10;16.55
1926;BME280;964;42.606;23.588;2023-02-02T10:54:42;94400.97;;;29.41;17.31
1926;BME280;964;42.606;23.588;2023-02-02T10:57:11;94391.78;;;29.09;17.54
1926;BME280;964;42.606;23.588;2023-02-02T10:59:43;94390.28;;;28.79;18.36
1926;BME280;964;42.606;23.588;2023-02-02T11:02:14;94389.72;;;28.74;18.26
1926;BME280;964;42.606;23.588;2023-02-02T11:04:41;94390.72;;;28.09;19.27
1926;BME280;964;42.606;23.588;2023-02-02T11:07:25;94378.84;;;28.36;19.01
1926;BME280;964;42.606;23.588;2023-02-02T11:09:53;94389.09;;;28.27;19.35
1926;BME280;964;42.606;23.588;2023-02-02T11:12:24;94395.63;;;27.40;20.20
1926;BME280;964;42.606;23.588;2023-02-02T11:14:58;94390.94;;;27.40;19.92
1926;BME280;964;42.606;23.588;2023-02-02T11:17:27;94382.72;;;28.59;19.47
1926;BME280;964;42.606;23.588;2023-02-02T11:19:54;94365.03;;;29.28;18.82
1926;BME280;964;42.606;23.588;2023-02-02T11:22:27;94368.19;;;28.91;18.64
1926;BME280;964;42.606;23.588;2023-02-02T11:24:59;94365.03;;;29.13;18.21
1926;BME280;964;42.606;23.588;2023-02-02T11:27:29;94359.00;;;29.38;18.77
1926;BME280;964;42.606;23.588;2023-02-02T11:29:58;94357.63;;;29.28;18.53
1926;BME280;964;42.606;23.588;2023-02-02T11:32:27;94358.38;;;27.78;19.11
1926;BME280;964;42.606;23.588;2023-02-02T11:35:22;94345.88;;;27.72;19.52
1926;BME280;964;42.606;23.588;2023-02-02T11:37:57;94346.06;;;30.14;17.85
1926;BME280;964;42.606;23.588;2023-02-02T11:40:38;94327.97;;;30.68;17.79
1926;BME280;964;42.606;23.588;2023-02-02T11:43:15;94323.34;;;31.05;17.04
1926;BME280;964;42.606;23.588;2023-02-02T11:45:44;94315.41;;;30.04;16.45
1926;BME280;964;42.606;23.588;2023-02-02T11:48:16;94324.88;;;27.87;17.95
1926;BME280;964;42.606;23.588;2023-02-02T11:50:46;94332.88;;;27.43;18.16
1926;BME280;964;42.606;23.588;2023-02-02T11:53:26;94317.28;;;29.03;17.42
1926;BME280;964;42.606;23.588;2023-02-02T11:55:55;94300.00;;;30.27;16.27
1926;BME280;964;42.606;23.588;2023-02-02T11:58:24;94304.03;;;29.31;17.14
1926;BME280;964;42.606;23.588;2023-02-02T12:00:56;94301.50;;;28.19;17.61
1926;BME280;964;42.606;23.588;2023-02-02T12:03:30;94301.56;;;27.71;17.99
1926;BME280;964;42.606;23.588;2023-02-02T12:05:57;94310.59;;;24.97;19.56
1926;BME280;964;42.606;23.588;2023-02-02T12:08:26;94301.13;;;25.96;18.99
1926;BME280;964;42.606;23.588;2023-02-02T12:10:57;94293.16;;;25.07;19.21
1926;BME280;964;42.606;23.588;2023-02-02T12:13:48;94303.59;;;24.47;19.89
1926;BME280;964;42.606;23.588;2023-02-02T12:16:27;94291.09;;;24.19;20.30
1926;BME280;964;42.606;23.588;2023-02-02T12:19:07;94294.47;;;23.88;20.43
1926;BME280;964;42.606;23.588;2023-02-02T12:21:42;94290.00;;;23.26;20.99
1926;BME280;964;42.606;23.588;2023-02-02T12:24:26;94296.38;;;23.66;21.17
1926;BME280;964;42.606;23.588;2023-02-02T12:27:13;94301.75;;;22.31;20.97
1926;BME280;964;42.606;23.588;2023-02-02T12:29:53;94300.59;;;22.32;21.66
1926;BME280;964;42.606;23.588;2023-02-02T12:32:27;94296.78;;;22.17;21.88
1926;BME280;964;42.606;23.588;2023-02-02T12:35:18;94298.34;;;22.43;21.88
1926;BME280;964;42.606;23.588;2023-02-02T12:37:55;94302.44;;;22.60;22.03
1926;BME280;964;42.606;23.588;2023-02-02T12:40:41;94305.84;;;22.23;22.42
1926;BME280;964;42.606;23.588;2023-02-02T12:43:20;94317.78;;;21.35;22.75
1926;BME280;964;42.606;23.588;2023-02-02T12:46:07;94312.75;;;21.37;23.67
1926;BME280;964;42.606;23.588;2023-02-02T12:48:55;94314.69;;;21.21;23.48
1926;BME280;964;42.606;23.588;2023-02-02T12:51:33;94316.22;;;20.53;22.92
1926;BME280;964;42.606;23.588;2023-02-02T12:54:25;94314.22;;;20.74;23.06
1926;BME280;964;42.606;23.588;2023-02-02T12:56:59;94319.97;;;20.40;24.02
1926;BME280;964;42.606;23.588;2023-02-02T12:59:46;94317.78;;;20.51;23.73
1926;BME280;964;42.606;23.588;2023-02-02T13:02:24;94311.97;;;21.04;23.40
1926;BME280;964;42.606;23.588;2023-02-02T13:05:10;94308.03;;;20.41;23.95
1926;BME280;964;42.606;23.588;2023-02-02T13:07:43;94311.91;;;20.40;24.01
1926;BME280;964;42.606;23.588;2023-02-02T13:10:16;94315.06;;;20.35;24.17
1926;BME280;964;42.606;23.588;2023-02-02T13:12:50;94323.19;;;20.51;24.45
1926;BME280;964;42.606;23.588;2023-02-02T13:15:22;94322.09;;;21.00;24.46
1926;BME280;964;42.606;23.588;2023-02-02T13:17:53;94316.84;;;20.93;24.25
1926;BME280;964;42.606;23.588;2023-02-02T13:20:30;94316.63;;;21.81;23.98
1926;BME280;964;42.606;23.588;2023-02-02T13:23:04;94312.09;;;21.62;24.24
1926;BME280;964;42.606;23.588;2023-02-02T13:25:35;94294.69;;;21.79;23.38
1926;BME280;964;42.606;23.588;2023-02-02T13:28:03;94306.91;;;21.55;23.85
1926;BME280;964;42.606;23.588;2023-02-02T13:30:36;94300.66;;;21.58;23.90
1926;BME280;964;42.606;23.588;2023-02-02T13:33:08;94315.41;;;21.82;23.46
1926;BME280;964;42.606;23.588;2023-02-02T13:35:45;94317.81;;;21.64;23.69
1926;BME280;964;42.606;23.588;2023-02-02T13:38:18;94328.91;;;21.98;23.87
1926;BME280;964;42.606;23.588;2023-02-02T13:40:47;94321.16;;;21.07;24.51
1926;BME280;964;42.606;23.588;2023-02-02T13:43:24;94308.28;;;21.31;24.16
1926;BME280;964;42.606;23.588;2023-02-02T13:46:01;94309.09;;;22.18;23.59
1926;BME280;964;42.606;23.588;2023-02-02T13:48:38;94297.38;;;21.95;23.49